Flight Track Log - Related Links

Times and Time Zones

All times are in EST time to prevent confusion due to time zone crossing. See the SKW5550 flight status page for this flight to view local times or setup timezone preferences in your user account.

Time Position Orientation Groundspeed Altitude Reporting Facility
EST Latitude Longitude Course Direction KTS MPH feet Rate Location/Type
Mon 07:54:23 AM 44.5047 -109.0533 156° South 158 182 6,400  Level Salt Lake Center
Mon 07:55:23 AM 44.4617 -109.0442 171° South 222 255 8,800 2,450 Climbing Salt Lake Center
Mon 07:56:00 AM 44.0894 -108.5863 157° South  Level Estimated
Mon 07:56:23 AM 44.4956 -108.9847 51° Northeast 227 261 11,300  Level Salt Lake Center
Mon 07:57:00 AM 44.0030 -108.4995 157° South  Level Estimated
Mon 07:57:23 AM 44.5583 -108.9942 354° North 225 259 14,000  Level Salt Lake Center
Mon 07:58:00 AM 43.8998 -108.4628 166° South  Level FlightAware Approximate
Mon 07:58:23 AM 44.6069 -108.9342 41° Northeast 262 302 16,300  Level Salt Lake Center
Mon 07:59:00 AM 43.8139 -108.3755 156° South  Level Estimated
Mon 07:59:24 AM 44.5497 -108.8475 133° Southeast 324 373 17,800  Level Salt Lake Center
Mon 08:00:24 AM 44.4525 -108.8458 179° South 349 402 19,800 1,500 Climbing Salt Lake Center
Mon 08:01:24 AM 44.3511 -108.8103 166° South 370 426 20,800 1,000 Climbing Salt Lake Center
Mon 08:02:24 AM 44.2486 -108.7506 157° South 391 450 21,800 1,100 Climbing Salt Lake Center
Mon 08:03:24 AM 44.1419 -108.6897 158° South 407 468 23,000 1,190 Climbing Salt Lake Center
Mon 08:04:25 AM 44.0331 -108.6264 157° South 421 484 24,200 1,240 Climbing Salt Lake Center
Mon 08:05:25 AM 43.9231 -108.5622 157° South 429 494 25,500 1,150 Climbing Salt Lake Center
Mon 08:06:25 AM 43.8144 -108.4994 157° South 426 490 26,500 950 Climbing Salt Lake Center
Mon 08:07:25 AM 43.7042 -108.4361 157° South 430 495 27,400 750 Climbing Salt Lake Center
Mon 08:08:25 AM 43.5911 -108.3739 158° South 437 503 28,000 595 Climbing Salt Lake Center
Mon 08:09:26 AM 43.4767 -108.3075 157° South 447 514 28,600 595 Climbing Salt Lake Center
Mon 08:10:26 AM 43.3719 -108.2064 145° Southeast 459 528 29,200 600 Climbing Salt Lake Center
Mon 08:11:26 AM 43.2717 -108.0964 141° Southeast 463 533 29,800 600 Climbing Salt Lake Center
Mon 08:12:26 AM 43.1522 -107.9708 143° Southeast 460 529 30,400 545 Climbing Salt Lake Center
Mon 08:13:27 AM 43.0478 -107.8631 143° Southeast 462 532 30,900 298 Climbing Salt Lake Center
Mon 08:14:27 AM 42.9461 -107.7556 142° Southeast 464 534 31,000 50 Climbing Salt Lake Center
Mon 08:15:27 AM 42.8561 -107.6614 142° Southeast 468 539 31,000  Level Salt Lake Center
Mon 08:16:27 AM 42.7417 -107.5414 142° Southeast 466 536 31,000  Level Salt Lake Center
Mon 08:17:28 AM 42.6450 -107.4419 143° Southeast 459 528 31,000  Level Salt Lake Center
Mon 08:18:28 AM 42.5458 -107.3392 143° Southeast 463 533 31,000  Level Salt Lake Center
Mon 08:19:28 AM 42.4472 -107.2375 143° Southeast 465 535 31,000  Level Salt Lake Center
Mon 08:20:15 AM 42.3658 -107.1539 143° Southeast 462 532 31,000  Level Denver Center
Mon 08:21:16 AM 42.2500 -107.0364 143° Southeast 464 534 31,000  Level Denver Center
Mon 08:22:16 AM 42.1519 -106.9367 143° Southeast 462 532 31,000  Level Denver Center
Mon 08:23:17 AM 42.0525 -106.8364 143° Southeast 464 534 31,000  Level Denver Center
Mon 08:24:17 AM 41.9367 -106.7208 143° Southeast 464 534 31,000  Level Denver Center
Mon 08:25:18 AM 41.8369 -106.6233 144° Southeast 462 532 31,000  Level Denver Center
Mon 08:26:18 AM 41.7378 -106.5264 144° Southeast 460 529 31,000  Level Denver Center
Mon 08:27:19 AM 41.6325 -106.4236 144° Southeast 461 531 31,000  Level Denver Center
Mon 08:28:19 AM 41.5331 -106.3269 144° Southeast 462 532 31,000  Level Denver Center
Mon 08:29:20 AM 41.4178 -106.2161 144° Southeast 459 528 31,000  Level Denver Center
Mon 08:30:21 AM 41.3192 -106.1214 144° Southeast 458 527 31,000  Level Denver Center
Mon 08:31:21 AM 41.2203 -106.0261 144° Southeast 459 528 31,000  Level Denver Center
Mon 08:32:22 AM 41.1039 -105.9128 144° Southeast 463 533 31,000  Level Denver Center
Mon 08:33:22 AM 41.0003 -105.8153 145° Southeast 460 529 31,000 -149 Level Denver Center
Mon 08:34:23 AM 40.8958 -105.7161 144° Southeast 462 532 30,700 -992 Descending Denver Center
Mon 08:35:23 AM 40.8100 -105.6364 145° Southeast 468 539 29,000 -2,132 Descending Denver Center
Mon 08:36:24 AM 40.6867 -105.5208 145° Southeast 459 528 26,400 -2,262 Descending Denver Center
Mon 08:37:25 AM 40.5908 -105.4153 140° Southeast 455 524 24,400 -1,934 Descending Denver Center
Mon 08:38:25 AM 40.5194 -105.2869 126° Southeast 443 510 22,500 -1,884 Descending Denver Center
Mon 08:39:26 AM 40.4286 -105.1856 140° Southeast 423 487 20,600 -1,967 Descending Denver Center
Mon 08:40:27 AM 40.3383 -105.1142 149° Southeast 379 436 18,500 -1,934 Descending Denver Center
Mon 08:41:27 AM 40.2506 -105.0453 149° Southeast 372 428 16,700 -1,636 Descending Denver Center
Mon 08:42:28 AM 40.1692 -104.9786 148° Southeast 349 402 15,200 -1,131 Descending Denver Center
Mon 08:43:29 AM 40.0925 -104.9181 149° Southeast 325 374 14,400 -793 Descending Denver Center
Mon 08:44:29 AM 40.0200 -104.8606 149° Southeast 309 356 13,600 -793 Descending Denver Center
Mon 08:45:30 AM 39.9422 -104.8086 153° Southeast 318 366 12,800 -1,180 Descending Denver Center
Mon 08:46:31 AM 39.8539 -104.8081 180° South 296 341 11,200 -1,488 Descending Denver Center
Mon 08:47:31 AM 39.7822 -104.7817 164° South 272 313 9,800 -1,091 Descending Denver Center
Mon 08:48:32 AM 39.7133 -104.7483 160° South 266 306 9,000 -836 Descending Denver Center
Mon 08:49:33 AM 39.7042 -104.6828 100° East 189 217 8,100 -942 Descending Denver Center
Mon 08:50:33 AM 39.7431 -104.6639 20° North 140 161 7,100 -793 Descending Denver Center
Mon 08:51:34 AM 39.7767 -104.6614 North 123 142 6,500 -639 Descending Denver Center
Mon 08:52:35 AM 39.8108 -104.6606 North 120 138 5,800 -545 Descending Denver Center
Mon 08:53:35 AM 39.8428 -104.6606 360° North 119 137 5,400 -400 Descending Denver Center

Login

Don't have an account? Register now (free) for customized features, flight alerts, and more!